createdAt,value
2023-06-02T00:01:07.530Z,16.10
2023-06-02T00:03:35.077Z,16.10
2023-06-02T00:06:02.675Z,16.10
2023-06-02T00:08:32.080Z,16.10
2023-06-02T00:10:59.203Z,16.10
2023-06-02T00:13:26.227Z,16.10
2023-06-02T00:15:52.932Z,16.10
2023-06-02T00:18:23.492Z,16.00
2023-06-02T00:20:53.444Z,15.90
2023-06-02T00:23:20.665Z,15.80
2023-06-02T00:25:47.322Z,15.80
2023-06-02T00:28:13.984Z,15.80
2023-06-02T00:30:40.650Z,15.70
2023-06-02T00:33:07.544Z,15.70
2023-06-02T00:35:34.228Z,15.50
2023-06-02T00:38:05.423Z,15.50
2023-06-02T00:40:32.949Z,15.50
2023-06-02T00:43:03.010Z,15.40
2023-06-02T00:45:29.737Z,15.40
2023-06-02T00:47:56.602Z,15.40
2023-06-02T00:50:26.182Z,15.30
2023-06-02T00:52:53.919Z,15.30
2023-06-02T00:55:20.720Z,15.20
2023-06-02T00:57:47.410Z,15.10
2023-06-02T01:00:15.502Z,15.10
2023-06-02T01:02:42.214Z,15.10
2023-06-02T01:05:11.933Z,15.10
2023-06-02T01:07:40.562Z,15.10
2023-06-02T01:10:08.432Z,15.00
2023-06-02T01:12:35.135Z,15.00
2023-06-02T01:15:01.921Z,14.90
2023-06-02T01:17:29.343Z,14.80
2023-06-02T01:19:57.324Z,14.90
2023-06-02T01:22:27.505Z,14.90
2023-06-02T01:24:58.861Z,14.80
2023-06-02T01:27:25.503Z,14.70
2023-06-02T01:29:53.407Z,14.70
2023-06-02T01:32:23.017Z,14.70
2023-06-02T01:34:53.532Z,14.80
2023-06-02T01:37:20.568Z,14.80
2023-06-02T01:39:47.978Z,14.80
2023-06-02T01:42:16.058Z,14.70
2023-06-02T01:44:43.886Z,14.60
2023-06-02T01:47:11.204Z,14.60
2023-06-02T01:49:37.859Z,14.30
2023-06-02T01:52:04.688Z,14.20
2023-06-02T01:54:32.556Z,14.00
2023-06-02T01:56:59.195Z,14.00
2023-06-02T01:59:26.757Z,14.00
2023-06-02T02:01:53.442Z,14.10
2023-06-02T02:04:20.098Z,14.20
2023-06-02T02:06:46.962Z,14.20
2023-06-02T02:09:13.623Z,14.20
2023-06-02T02:11:40.321Z,14.20
2023-06-02T02:14:06.996Z,14.10
2023-06-02T02:16:33.803Z,13.90
2023-06-02T02:19:01.396Z,13.90
2023-06-02T02:21:28.036Z,14.00
2023-06-02T02:23:55.784Z,13.90
2023-06-02T02:26:22.437Z,13.90
2023-06-02T02:28:49.870Z,13.90
2023-06-02T02:31:16.597Z,14.00
2023-06-02T02:33:43.245Z,14.00
2023-06-02T02:36:09.901Z,14.00
2023-06-02T02:38:36.543Z,13.80
2023-06-02T02:41:03.169Z,13.80
2023-06-02T02:43:29.833Z,13.80
2023-06-02T02:45:56.559Z,13.70
2023-06-02T02:48:23.197Z,13.80
2023-06-02T02:50:49.854Z,13.90
2023-06-02T02:53:17.443Z,13.90
2023-06-02T02:55:45.355Z,14.00
2023-06-02T02:58:12.151Z,13.90
2023-06-02T03:00:39.082Z,13.80
2023-06-02T03:03:06.954Z,13.80
2023-06-02T03:05:35.804Z,13.90
2023-06-02T03:08:03.578Z,13.80
2023-06-02T03:10:30.529Z,13.80
2023-06-02T03:12:57.219Z,13.80
2023-06-02T03:15:23.869Z,13.80
2023-06-02T03:17:52.259Z,13.80
2023-06-02T03:20:19.230Z,13.80
2023-06-02T03:22:45.879Z,13.80
2023-06-02T03:25:12.484Z,13.90
2023-06-02T03:27:39.122Z,14.00
2023-06-02T03:30:06.120Z,14.00
2023-06-02T03:32:33.016Z,14.10
2023-06-02T03:34:59.722Z,14.10
2023-06-02T03:37:26.488Z,14.00
2023-06-02T03:39:53.093Z,14.10
2023-06-02T03:42:19.817Z,14.00
2023-06-02T03:44:46.799Z,14.10
2023-06-02T03:47:13.424Z,14.10
2023-06-02T03:49:40.176Z,14.10
2023-06-02T03:52:06.848Z,14.00
2023-06-02T03:54:33.431Z,14.10
2023-06-02T03:57:00.826Z,14.00
2023-06-02T03:59:27.491Z,14.00
2023-06-02T04:01:54.187Z,14.00
2023-06-02T04:04:21.039Z,14.00
2023-06-02T04:06:48.070Z,14.00
2023-06-02T04:09:14.828Z,14.00
2023-06-02T04:11:41.925Z,14.00
2023-06-02T04:14:09.104Z,14.00
2023-06-02T04:16:35.850Z,13.80
2023-06-02T04:19:02.844Z,14.00
2023-06-02T04:21:29.667Z,13.90
2023-06-02T04:23:56.808Z,14.10
2023-06-02T04:26:23.437Z,14.30
2023-06-02T04:28:50.116Z,13.90
2023-06-02T04:31:27.685Z,14.10
2023-06-02T04:33:55.646Z,14.20
2023-06-02T04:36:22.461Z,14.40
2023-06-02T04:38:49.522Z,14.40
2023-06-02T04:41:16.185Z,14.30
2023-06-02T04:43:43.412Z,14.30
2023-06-02T04:46:11.629Z,14.20
2023-06-02T04:48:41.456Z,14.40
2023-06-02T04:51:08.514Z,14.50
2023-06-02T04:53:35.227Z,14.60
2023-06-02T04:56:03.117Z,14.40
2023-06-02T04:58:33.545Z,14.30
2023-06-02T05:01:01.674Z,14.50
2023-06-02T05:03:28.333Z,14.60
2023-06-02T05:05:54.925Z,14.70
2023-06-02T05:08:22.871Z,14.50
2023-06-02T05:10:49.510Z,14.50
2023-06-02T05:13:17.573Z,14.60
2023-06-02T05:15:45.237Z,14.80
2023-06-02T05:18:15.537Z,14.60
2023-06-02T05:20:42.636Z,14.50
2023-06-02T05:23:09.240Z,14.70
2023-06-02T05:25:35.871Z,14.70
2023-06-02T05:28:02.485Z,14.90
2023-06-02T05:30:29.106Z,14.80
2023-06-02T05:32:55.740Z,14.90
2023-06-02T05:35:22.456Z,15.10
2023-06-02T05:37:49.135Z,15.20
2023-06-02T05:40:15.865Z,15.30
2023-06-02T05:42:42.562Z,15.40
2023-06-02T05:45:09.390Z,15.50
2023-06-02T05:47:36.086Z,15.60
2023-06-02T05:50:02.873Z,15.70
2023-06-02T05:52:29.503Z,15.70
2023-06-02T05:54:56.189Z,15.70
2023-06-02T05:57:22.800Z,15.70
2023-06-02T05:59:49.423Z,15.80
2023-06-02T06:02:16.272Z,15.70
2023-06-02T06:04:42.893Z,15.70
2023-06-02T06:07:09.623Z,15.60
2023-06-02T06:09:36.327Z,15.30
2023-06-02T06:12:03.580Z,15.30
2023-06-02T06:14:30.375Z,15.40
2023-06-02T06:16:56.980Z,15.30
2023-06-02T06:19:23.596Z,15.30
2023-06-02T06:21:50.270Z,15.40
2023-06-02T06:24:16.922Z,15.40
2023-06-02T06:26:43.594Z,15.00
2023-06-02T06:29:10.226Z,15.20
2023-06-02T06:31:36.863Z,15.40
2023-06-02T06:34:03.933Z,15.60
2023-06-02T06:36:30.596Z,15.60
2023-06-02T06:38:57.349Z,15.60
2023-06-02T06:41:26.192Z,15.80
2023-06-02T06:43:52.927Z,15.90
2023-06-02T06:46:19.786Z,15.90
2023-06-02T06:48:47.802Z,15.80
2023-06-02T06:51:15.500Z,16.00
2023-06-02T06:53:42.325Z,16.20
2023-06-02T06:56:09.906Z,16.30
2023-06-02T06:58:36.675Z,16.30
2023-06-02T07:01:03.306Z,16.40
2023-06-02T07:03:30.905Z,16.50
2023-06-02T07:05:57.892Z,16.50
2023-06-02T07:08:24.589Z,16.50
2023-06-02T07:10:51.251Z,16.50
2023-06-02T07:13:19.795Z,16.60
2023-06-02T07:15:46.786Z,16.40
2023-06-02T07:18:13.721Z,16.50
2023-06-02T07:20:40.386Z,16.60
2023-06-02T07:23:07.016Z,16.60
2023-06-02T07:25:33.917Z,16.80
2023-06-02T07:28:01.569Z,16.90
2023-06-02T07:30:28.217Z,16.70
2023-06-02T07:32:54.851Z,16.70
2023-06-02T07:35:21.918Z,16.90
2023-06-02T07:37:53.170Z,17.10
2023-06-02T07:40:20.613Z,17.20
2023-06-02T07:42:47.600Z,17.10
2023-06-02T07:45:14.430Z,17.20
2023-06-02T07:47:41.274Z,17.40
2023-06-02T07:50:08.165Z,17.40
2023-06-02T07:52:35.749Z,17.40
2023-06-02T07:55:02.819Z,17.50
2023-06-02T07:57:30.184Z,17.50
2023-06-02T07:59:56.921Z,17.30
2023-06-02T08:02:23.694Z,17.20
2023-06-02T08:04:50.694Z,17.00
2023-06-02T08:07:17.510Z,17.00
2023-06-02T08:09:44.178Z,17.20
2023-06-02T08:12:10.923Z,17.30
2023-06-02T08:14:37.907Z,17.40
2023-06-02T08:17:04.702Z,17.60
2023-06-02T08:19:31.972Z,17.60
2023-06-02T08:21:59.745Z,17.50
2023-06-02T08:24:27.586Z,17.50
2023-06-02T08:26:55.534Z,17.60
2023-06-02T08:29:23.599Z,17.90
2023-06-02T08:31:50.514Z,17.90
2023-06-02T08:34:21.899Z,18.00
2023-06-02T08:36:57.358Z,18.00
2023-06-02T08:39:24.540Z,18.20
2023-06-02T08:41:52.111Z,18.40
2023-06-02T08:44:18.840Z,18.40
2023-06-02T08:46:49.370Z,18.20
2023-06-02T08:49:22.401Z,18.00
2023-06-02T08:51:52.560Z,17.80
2023-06-02T08:54:21.088Z,17.80
2023-06-02T08:56:50.432Z,17.90
2023-06-02T08:59:21.034Z,18.20
2023-06-02T09:01:48.360Z,18.40
2023-06-02T09:04:16.093Z,18.40
2023-06-02T09:06:43.802Z,18.50
2023-06-02T09:09:10.708Z,19.00
2023-06-02T09:11:37.418Z,19.30
2023-06-02T09:14:23.240Z,19.30
2023-06-02T09:16:50.102Z,19.50
2023-06-02T09:19:16.888Z,19.50
2023-06-02T09:21:43.692Z,19.50
2023-06-02T09:24:13.955Z,19.60
2023-06-02T09:26:52.999Z,19.70
2023-06-02T09:29:21.591Z,19.70
2023-06-02T09:31:49.715Z,19.90
2023-06-02T09:34:17.597Z,20.20
2023-06-02T09:36:44.885Z,20.80
2023-06-02T09:39:11.723Z,21.50
2023-06-02T09:41:41.705Z,22.00
2023-06-02T09:44:12.401Z,22.50
2023-06-02T09:46:39.706Z,22.80
2023-06-02T09:49:07.362Z,23.20
2023-06-02T09:51:34.380Z,23.50
2023-06-02T09:54:01.219Z,23.30
2023-06-02T09:56:30.598Z,22.70
2023-06-02T09:58:57.365Z,22.60
2023-06-02T10:01:24.030Z,22.30
2023-06-02T10:03:50.866Z,22.30
2023-06-02T10:06:25.616Z,22.40
2023-06-02T10:09:12.656Z,22.30
2023-06-02T10:12:15.018Z,22.20
2023-06-02T10:14:41.880Z,22.00
2023-06-02T10:17:26.978Z,22.10
2023-06-02T10:19:59.546Z,22.10
2023-06-02T10:22:29.033Z,21.80
2023-06-02T10:25:02.606Z,22.10
2023-06-02T10:27:33.405Z,22.10
2023-06-02T10:30:00.714Z,22.20
2023-06-02T10:32:29.964Z,22.50
2023-06-02T10:34:58.332Z,22.30
2023-06-02T10:37:25.024Z,22.10
2023-06-02T10:39:53.890Z,22.10
2023-06-02T10:42:21.678Z,22.40
2023-06-02T10:44:48.607Z,22.50
2023-06-02T10:47:18.384Z,22.70
2023-06-02T10:49:59.343Z,22.80
2023-06-02T10:52:31.151Z,22.80
2023-06-02T10:55:13.340Z,22.70
2023-06-02T10:57:52.718Z,22.70
2023-06-02T11:00:37.986Z,22.80
2023-06-02T11:03:25.157Z,22.70
2023-06-02T11:05:52.077Z,23.00
2023-06-02T11:08:19.916Z,23.10
2023-06-02T11:10:51.092Z,23.30
2023-06-02T11:13:21.776Z,23.50
2023-06-02T11:15:54.525Z,23.70
2023-06-02T11:18:24.282Z,23.70
2023-06-02T11:20:52.240Z,23.80
2023-06-02T11:23:19.654Z,23.70
2023-06-02T11:25:50.048Z,23.70
2023-06-02T11:28:18.544Z,23.80
2023-06-02T11:30:45.496Z,23.60
2023-06-02T11:33:12.116Z,23.30
2023-06-02T11:35:39.299Z,23.00
2023-06-02T11:38:09.311Z,22.60
2023-06-02T11:40:37.144Z,22.50
2023-06-02T11:43:04.691Z,22.70
2023-06-02T11:45:32.078Z,22.80
2023-06-02T11:48:00.554Z,22.80
2023-06-02T11:50:27.510Z,22.40
2023-06-02T11:52:54.385Z,22.20
2023-06-02T11:55:21.928Z,22.40
2023-06-02T11:57:48.651Z,22.70
2023-06-02T12:00:20.521Z,23.20
2023-06-02T12:02:54.239Z,23.30
2023-06-02T12:05:35.060Z,23.50
2023-06-02T12:08:28.024Z,23.60
2023-06-02T12:10:57.262Z,23.60
2023-06-02T12:13:32.191Z,23.40
2023-06-02T12:16:17.449Z,23.10
2023-06-02T12:18:44.180Z,22.90
2023-06-02T12:21:23.243Z,23.00
2023-06-02T12:23:51.483Z,23.20
2023-06-02T12:26:18.211Z,23.20
2023-06-02T12:28:45.217Z,23.20
2023-06-02T12:31:12.430Z,23.20
2023-06-02T12:33:41.420Z,23.10
2023-06-02T12:36:10.593Z,23.00
2023-06-02T12:38:37.862Z,23.00
2023-06-02T12:41:04.926Z,22.90
2023-06-02T12:43:31.766Z,22.90
2023-06-02T12:45:58.679Z,23.00
2023-06-02T12:48:25.373Z,22.90
2023-06-02T12:50:52.035Z,23.00
2023-06-02T12:53:18.722Z,23.20
2023-06-02T12:55:45.422Z,23.50
2023-06-02T12:58:12.098Z,23.40
2023-06-02T13:00:40.362Z,23.40
2023-06-02T13:03:07.502Z,23.20
2023-06-02T13:05:36.530Z,23.10
2023-06-02T13:08:03.380Z,23.20
2023-06-02T13:10:30.056Z,23.30
2023-06-02T13:12:56.700Z,23.30
2023-06-02T13:15:24.150Z,23.30
2023-06-02T13:17:51.457Z,23.30
2023-06-02T13:20:18.172Z,23.40
2023-06-02T13:22:44.853Z,23.20
2023-06-02T13:25:11.652Z,23.40
2023-06-02T13:27:42.715Z,23.40
2023-06-02T13:30:10.173Z,23.50
2023-06-02T13:32:36.959Z,23.50
2023-06-02T13:35:03.843Z,23.30
2023-06-02T13:37:30.636Z,23.20
2023-06-02T13:39:57.277Z,23.30
2023-06-02T13:42:23.966Z,23.10
2023-06-02T13:44:50.868Z,23.20
2023-06-02T13:47:17.576Z,23.20
2023-06-02T13:49:44.906Z,23.00
2023-06-02T13:52:11.546Z,23.20
2023-06-02T13:54:38.822Z,23.20
2023-06-02T13:57:06.129Z,23.20
2023-06-02T13:59:33.308Z,23.00
2023-06-02T14:01:59.974Z,23.00
2023-06-02T14:04:26.817Z,23.00
2023-06-02T14:06:54.399Z,23.00
2023-06-02T14:09:21.330Z,22.80
2023-06-02T14:11:48.040Z,22.90
2023-06-02T14:14:14.913Z,22.80
2023-06-02T14:16:41.708Z,22.70
2023-06-02T14:19:08.868Z,22.70
2023-06-02T14:21:36.602Z,22.50
2023-06-02T14:24:03.747Z,22.60
2023-06-02T14:26:30.494Z,22.50
2023-06-02T14:28:57.428Z,22.30
2023-06-02T14:31:24.105Z,22.30
2023-06-02T14:33:50.857Z,22.30
2023-06-02T14:36:17.908Z,22.20
2023-06-02T14:38:44.607Z,22.20
2023-06-02T14:41:11.475Z,22.10
2023-06-02T14:43:38.143Z,22.20
2023-06-02T14:46:07.495Z,22.40
2023-06-02T14:48:34.702Z,22.50
2023-06-02T14:51:01.424Z,22.70
2023-06-02T14:53:28.083Z,22.60
2023-06-02T14:55:55.769Z,22.50
2023-06-02T14:58:23.853Z,22.20
2023-06-02T15:00:51.111Z,22.60
2023-06-02T15:03:17.939Z,22.80
2023-06-02T15:05:44.918Z,22.80
2023-06-02T15:08:12.490Z,22.60
2023-06-02T15:10:39.251Z,22.60
2023-06-02T15:13:05.866Z,22.70
2023-06-02T15:15:33.472Z,22.50
2023-06-02T15:18:01.251Z,22.40
2023-06-02T15:20:28.085Z,22.50
2023-06-02T15:22:54.883Z,23.00
2023-06-02T15:25:21.530Z,23.20
2023-06-02T15:27:48.202Z,23.30
2023-06-02T15:30:14.918Z,23.40
2023-06-02T15:32:41.545Z,22.90
2023-06-02T15:35:08.504Z,22.80
2023-06-02T15:37:35.171Z,22.60
2023-06-02T15:40:02.034Z,22.50
2023-06-02T15:42:28.754Z,22.70
2023-06-02T15:44:55.655Z,22.50
2023-06-02T15:47:22.464Z,22.30
2023-06-02T15:49:49.314Z,22.00
2023-06-02T15:52:16.066Z,22.20
2023-06-02T15:54:42.697Z,22.00
2023-06-02T15:57:09.381Z,22.10
2023-06-02T15:59:36.061Z,21.80
2023-06-02T16:02:02.758Z,21.60
2023-06-02T16:04:29.489Z,21.60
2023-06-02T16:06:56.216Z,21.70
2023-06-02T16:09:22.906Z,21.70
2023-06-02T16:11:49.527Z,21.60
2023-06-02T16:14:16.150Z,21.50
2023-06-02T16:16:42.799Z,21.50
2023-06-02T16:19:09.906Z,21.40
2023-06-02T16:21:36.839Z,21.20
2023-06-02T16:24:04.290Z,21.00
2023-06-02T16:26:31.145Z,20.90
2023-06-02T16:28:57.867Z,20.80
2023-06-02T16:31:27.032Z,20.80
2023-06-02T16:33:53.962Z,20.60
2023-06-02T16:36:20.580Z,20.70
2023-06-02T16:38:47.295Z,20.40
2023-06-02T16:41:13.959Z,20.30
2023-06-02T16:43:40.728Z,20.30
2023-06-02T16:46:07.727Z,20.30
2023-06-02T16:48:34.740Z,20.20
2023-06-02T16:51:01.615Z,20.10
2023-06-02T16:53:29.679Z,19.70
2023-06-02T16:55:56.488Z,19.60
2023-06-02T16:58:23.108Z,19.60
2023-06-02T17:00:49.838Z,19.50
2023-06-02T17:03:16.576Z,19.70
2023-06-02T17:05:45.940Z,19.50
2023-06-02T17:08:13.307Z,19.50
2023-06-02T17:10:40.059Z,19.50
2023-06-02T17:13:06.719Z,19.40
2023-06-02T17:15:33.420Z,19.30
2023-06-02T17:18:00.282Z,19.20
2023-06-02T17:20:27.147Z,19.20
2023-06-02T17:22:53.899Z,19.10
2023-06-02T17:25:20.952Z,19.00
2023-06-02T17:27:47.725Z,18.90
2023-06-02T17:30:14.403Z,19.10
2023-06-02T17:32:41.042Z,19.00
2023-06-02T17:35:07.726Z,19.00
2023-06-02T17:37:35.092Z,19.10
2023-06-02T17:40:04.461Z,19.10
2023-06-02T17:42:32.218Z,19.00
2023-06-02T17:48:27.036Z,18.80
2023-06-02T17:51:14.130Z,18.70
2023-06-02T17:53:41.277Z,18.80
2023-06-02T17:56:08.032Z,18.80
2023-06-02T17:58:34.749Z,18.80
2023-06-02T18:01:01.608Z,18.70
2023-06-02T18:03:28.505Z,18.60
2023-06-02T18:05:56.099Z,18.60
2023-06-02T18:08:22.719Z,18.50
2023-06-02T18:10:49.539Z,18.40
2023-06-02T18:13:16.194Z,18.10
2023-06-02T18:15:43.065Z,18.20
2023-06-02T18:18:10.542Z,18.10
2023-06-02T18:20:37.301Z,18.10
2023-06-02T18:23:04.721Z,18.10
2023-06-02T18:25:31.412Z,18.20
2023-06-02T18:27:58.081Z,18.10
2023-06-02T18:30:24.850Z,17.90
2023-06-02T18:32:51.602Z,18.00
2023-06-02T18:35:18.432Z,18.00
2023-06-02T18:37:45.108Z,17.90
2023-06-02T18:40:12.093Z,17.70
2023-06-02T18:42:38.750Z,17.80
2023-06-02T18:45:05.966Z,17.70
2023-06-02T18:47:33.567Z,17.40
2023-06-02T18:50:00.415Z,17.50
2023-06-02T18:52:27.048Z,17.50
2023-06-02T18:54:54.453Z,17.50
2023-06-02T18:57:23.017Z,17.60
2023-06-02T18:59:49.792Z,17.60
2023-06-02T19:02:16.493Z,17.50
2023-06-02T19:04:43.216Z,17.60
2023-06-02T19:07:10.087Z,17.40
2023-06-02T19:09:37.056Z,17.20
2023-06-02T19:12:03.794Z,17.30
2023-06-02T19:14:30.433Z,17.20
2023-06-02T19:16:57.216Z,17.10
2023-06-02T19:19:24.067Z,17.10
2023-06-02T19:21:50.812Z,17.10
2023-06-02T19:24:17.480Z,17.20
2023-06-02T19:26:44.966Z,17.10
2023-06-02T19:29:11.721Z,16.90
2023-06-02T19:31:38.662Z,16.90
2023-06-02T19:34:05.755Z,16.90
2023-06-02T19:36:32.793Z,16.90
2023-06-02T19:38:59.402Z,16.90
2023-06-02T19:41:26.098Z,17.00
2023-06-02T19:43:52.822Z,17.00
2023-06-02T19:46:19.586Z,17.00
2023-06-02T19:48:46.296Z,17.00
2023-06-02T19:51:13.010Z,16.80
2023-06-02T19:53:39.682Z,16.70
2023-06-02T19:56:07.098Z,16.60
2023-06-02T19:58:34.708Z,16.40
2023-06-02T20:01:01.452Z,16.40
2023-06-02T20:03:28.888Z,16.40
2023-06-02T20:05:57.969Z,16.40
2023-06-02T20:08:27.893Z,16.50
2023-06-02T20:10:54.649Z,16.40
2023-06-02T20:13:23.064Z,16.40
2023-06-02T20:15:50.348Z,16.40
2023-06-02T20:18:18.356Z,16.20
2023-06-02T20:20:45.049Z,16.20
2023-06-02T20:23:11.688Z,15.80
2023-06-02T20:25:38.376Z,15.90
2023-06-02T20:28:05.266Z,15.90
2023-06-02T20:30:31.918Z,15.90
2023-06-02T20:32:59.075Z,16.00
2023-06-02T20:35:25.903Z,15.90
2023-06-02T20:37:52.652Z,15.90
2023-06-02T20:40:20.646Z,15.90
2023-06-02T20:42:47.453Z,16.00
2023-06-02T20:45:15.670Z,15.90
2023-06-02T20:47:42.435Z,15.90
2023-06-02T20:50:09.281Z,15.90
2023-06-02T20:52:36.329Z,15.80
2023-06-02T20:55:03.213Z,15.90
2023-06-02T20:57:29.809Z,15.90
2023-06-02T20:59:56.469Z,15.90
2023-06-02T21:02:24.472Z,15.70
2023-06-02T21:04:51.260Z,15.70
2023-06-02T21:07:17.863Z,15.70
2023-06-02T21:09:46.123Z,15.70
2023-06-02T21:12:12.776Z,15.60
2023-06-02T21:14:39.438Z,15.60
2023-06-02T21:17:06.251Z,15.60
2023-06-02T21:19:32.877Z,15.60
2023-06-02T21:21:59.503Z,15.50
2023-06-02T21:24:26.192Z,15.50
2023-06-02T21:26:52.865Z,15.50
2023-06-02T21:29:19.602Z,15.50
2023-06-02T21:31:46.293Z,15.40
2023-06-02T21:34:13.000Z,15.40
2023-06-02T21:36:39.642Z,15.40
2023-06-02T21:39:06.391Z,15.30
2023-06-02T21:41:33.045Z,15.30
2023-06-02T21:43:59.720Z,15.30
2023-06-02T21:46:26.402Z,15.10
2023-06-02T21:48:53.053Z,15.10
2023-06-02T21:51:19.678Z,15.10
2023-06-02T21:53:46.327Z,15.00
2023-06-02T21:56:13.057Z,14.90
2023-06-02T22:01:09.157Z,15.00
2023-06-02T22:03:35.965Z,14.90
2023-06-02T22:06:03.318Z,15.00
2023-06-02T22:08:29.972Z,14.90
2023-06-02T22:11:00.920Z,14.90
2023-06-02T22:13:30.756Z,14.90
2023-06-02T22:15:57.491Z,14.90
2023-06-02T22:18:24.170Z,14.80
2023-06-02T22:20:50.889Z,14.80
2023-06-02T22:23:17.626Z,14.70
2023-06-02T22:25:44.306Z,14.70
2023-06-02T22:28:11.552Z,14.60
2023-06-02T22:30:38.330Z,14.60
2023-06-02T22:33:05.050Z,14.60
2023-06-02T22:35:31.918Z,14.60
2023-06-02T22:37:58.565Z,14.40
2023-06-02T22:40:25.410Z,14.50
2023-06-02T22:42:52.057Z,14.50
2023-06-02T22:45:18.680Z,14.50
2023-06-02T22:47:45.606Z,14.00
2023-06-02T22:50:12.288Z,13.80
2023-06-02T22:52:38.964Z,13.80
2023-06-02T22:55:06.278Z,13.90
2023-06-02T22:57:32.960Z,14.00
2023-06-02T22:59:59.674Z,14.00
2023-06-02T23:02:26.344Z,14.00
2023-06-02T23:04:53.067Z,13.90
2023-06-02T23:07:19.781Z,13.70
2023-06-02T23:09:46.440Z,13.80
2023-06-02T23:12:13.085Z,13.90
2023-06-02T23:14:39.729Z,13.70
2023-06-02T23:17:06.463Z,13.70
2023-06-02T23:19:33.174Z,13.70
2023-06-02T23:21:59.822Z,13.70
2023-06-02T23:24:26.588Z,13.80
2023-06-02T23:26:53.237Z,13.90
2023-06-02T23:29:19.862Z,13.90
2023-06-02T23:31:46.512Z,13.80
2023-06-02T23:34:13.314Z,13.70
2023-06-02T23:36:40.090Z,13.70
2023-06-02T23:39:07.070Z,13.70
2023-06-02T23:41:33.679Z,13.70
2023-06-02T23:44:00.309Z,13.60
2023-06-02T23:46:27.014Z,13.70
2023-06-02T23:48:53.735Z,13.70
2023-06-02T23:51:20.638Z,13.60
2023-06-02T23:53:47.249Z,13.50
2023-06-02T23:56:13.911Z,13.50
2023-06-02T23:58:40.520Z,13.40
